Ak-Bajtal, Uzbekistan
Current Conditions -  °F | °C
As of 6:00 AM on Monday 24 Nov 2014 (Local Time) from UAOO Reporting Station
Light Snow Light Snow  
Wind Chill: 24°   Ceiling: 1000
Heat Index: 32°   Visibility: 3mi
Dew Point: 32°   Wind: 9mph
Humidity: 100%   Direction: 10°N
Pressure: 29.83"   Gusts: NA
Location:  43.15°N, 64.33°E
Report Text: UAOO 240100Z 01004MPS 5000 -SN BR OVC010 M00/M00 Q1010 NOSIGRMK QFE746/0994
Loading
Personal Weather Stations






























Interactive Weather Map New forecast layout! Learn more

10-Day Weather Forecast

Advertisements
Track Severe Weather on mobile